Time;durP1;ratioP1;P1;durP2;ratioP2;P2;SDS_P1;SDS_P2;PMS_P1;PMS_P2;Temp;Humidity;BMP_temperature;BMP_pressure;BME280_temperature;BME280_humidity;BME280_pressure;Samples;Min_cycle;Max_cycle;Signal;HPM_P1;HPM_P2
2022/08/30 00:01:09;;;;;;;6.95;3.58;;;;;;;;;;5075281;28;20047;-66
2022/08/30 00:03:36;;;;;;;7.00;3.42;;;;;;;;;;5076768;28;20048;-66
2022/08/30 00:06:05;;;;;;;7.13;3.03;;;;;;;;;;5076305;28;20047;-66
2022/08/30 00:08:31;;;;;;;7.60;3.50;;;;;;;;;;5075668;28;20040;-66
2022/08/30 00:10:57;;;;;;;7.57;3.65;;;;;;;;;;5094788;28;20380;-66
2022/08/30 00:13:24;;;;;;;5.72;3.10;;;;;;;;;;5093188;28;20043;-66
2022/08/30 00:15:50;;;;;;;6.38;3.00;;;;;;;;;;5094637;28;20094;-66
2022/08/30 00:18:17;;;;;;;6.63;3.33;;;;;;;;;;5075749;28;20058;-66
2022/08/30 00:20:44;;;;;;;5.15;2.72;;;;;;;;;;5075420;28;20526;-66
2022/08/30 00:23:11;;;;;;;6.50;3.15;;;;;;;;;;5075546;28;20051;-66
2022/08/30 00:25:37;;;;;;;6.20;2.85;;;;;;;;;;5076141;28;20553;-66
2022/08/30 00:28:03;;;;;;;6.38;3.38;;;;;;;;;;5092762;28;20047;-66
2022/08/30 00:30:30;;;;;;;5.43;2.90;;;;;;;;;;5093717;28;20399;-66
2022/08/30 00:32:56;;;;;;;5.75;2.95;;;;;;;;;;5076099;28;20122;-66
2022/08/30 00:35:22;;;;;;;7.43;3.78;;;;;;;;;;5074804;28;20392;-66
2022/08/30 00:37:49;;;;;;;5.82;3.10;;;;;;;;;;5094009;28;20404;-67
2022/08/30 00:40:16;;;;;;;5.30;2.92;;;;;;;;;;5093505;28;20044;-66
2022/08/30 00:42:43;;;;;;;7.35;3.20;;;;;;;;;;5093065;28;20124;-66
2022/08/30 00:45:11;;;;;;;5.72;2.65;;;;;;;;;;5058702;28;20109;-66
2022/08/30 00:47:37;;;;;;;7.05;2.88;;;;;;;;;;5076026;28;20396;-66
2022/08/30 00:50:07;;;;;;;5.95;2.70;;;;;;;;;;5057525;28;20051;-67
2022/08/30 00:52:34;;;;;;;7.30;2.95;;;;;;;;;;5093990;28;20176;-66
2022/08/30 00:55:00;;;;;;;5.05;2.60;;;;;;;;;;5075581;28;20053;-66
2022/08/30 00:57:27;;;;;;;5.20;2.38;;;;;;;;;;5092479;28;20040;-66
2022/08/30 00:59:53;;;;;;;6.07;3.40;;;;;;;;;;5075603;28;20048;-66
2022/08/30 01:02:22;;;;;;;6.20;2.95;;;;;;;;;;5074975;28;20089;-66
2022/08/30 01:04:50;;;;;;;5.68;2.97;;;;;;;;;;5074744;28;20143;-66
2022/08/30 01:07:16;;;;;;;7.00;3.08;;;;;;;;;;5074585;28;20549;-66
2022/08/30 01:09:42;;;;;;;7.40;3.50;;;;;;;;;;5074433;28;20486;-66
2022/08/30 01:12:09;;;;;;;7.93;3.50;;;;;;;;;;5074659;28;20094;-66
2022/08/30 01:14:35;;;;;;;6.32;3.50;;;;;;;;;;5075453;28;20032;-66
2022/08/30 01:17:01;;;;;;;5.40;3.03;;;;;;;;;;5074477;28;20047;-66
2022/08/30 01:19:38;;;;;;;6.32;3.40;;;;;;;;;;5074639;28;20051;-66
2022/08/30 01:22:23;;;;;;;5.78;3.00;;;;;;;;;;5074597;28;20123;-66
2022/08/30 01:24:50;;;;;;;6.40;2.75;;;;;;;;;;5092493;28;20043;-66
2022/08/30 01:27:17;;;;;;;7.03;3.38;;;;;;;;;;5074446;28;20044;-66
2022/08/30 01:29:43;;;;;;;6.68;3.03;;;;;;;;;;5092903;28;20036;-66
2022/08/30 01:32:20;;;;;;;6.22;3.15;;;;;;;;;;5073256;28;20043;-66
2022/08/30 01:34:47;;;;;;;8.90;3.20;;;;;;;;;;5093184;28;20123;-66
2022/08/30 01:37:16;;;;;;;7.43;3.40;;;;;;;;;;5074314;28;20083;-66
2022/08/30 01:39:44;;;;;;;6.20;3.03;;;;;;;;;;5057338;28;20097;-66
2022/08/30 01:42:11;;;;;;;6.65;3.03;;;;;;;;;;5091214;28;20044;-66
2022/08/30 01:44:38;;;;;;;6.78;3.60;;;;;;;;;;5093029;28;20396;-66
2022/08/30 01:47:04;;;;;;;8.30;3.40;;;;;;;;;;5073071;28;20052;-66
2022/08/30 01:49:30;;;;;;;7.15;3.25;;;;;;;;;;5092708;28;20084;-66
2022/08/30 01:51:57;;;;;;;8.15;3.72;;;;;;;;;;5073853;28;20093;-66
2022/08/30 01:54:23;;;;;;;5.50;3.20;;;;;;;;;;5092163;28;20039;-66
2022/08/30 01:56:49;;;;;;;5.60;3.10;;;;;;;;;;5074483;28;20047;-66
2022/08/30 01:59:15;;;;;;;6.35;3.05;;;;;;;;;;5073099;28;20051;-66
2022/08/30 02:01:41;;;;;;;7.78;3.88;;;;;;;;;;5074411;28;20050;-66
2022/08/30 02:04:10;;;;;;;5.55;3.08;;;;;;;;;;5073883;28;20040;-66
2022/08/30 02:06:37;;;;;;;6.15;3.30;;;;;;;;;;5091717;28;20052;-66
2022/08/30 02:09:04;;;;;;;8.30;3.60;;;;;;;;;;5057089;28;20040;-66
2022/08/30 02:11:30;;;;;;;5.50;3.03;;;;;;;;;;5092363;28;20050;-66
2022/08/30 02:13:56;;;;;;;5.63;3.42;;;;;;;;;;5091871;28;20040;-66
2022/08/30 02:16:23;;;;;;;8.73;3.60;;;;;;;;;;5056860;28;20040;-66
2022/08/30 02:18:50;;;;;;;6.10;3.38;;;;;;;;;;5074320;28;20123;-66
2022/08/30 02:21:16;;;;;;;6.30;3.30;;;;;;;;;;5091033;28;20102;-66
2022/08/30 02:23:42;;;;;;;7.03;2.90;;;;;;;;;;5074307;28;20044;-66
2022/08/30 02:26:09;;;;;;;6.65;2.90;;;;;;;;;;5091743;28;20044;-66
2022/08/30 02:28:35;;;;;;;7.10;3.50;;;;;;;;;;5073385;28;20048;-66
2022/08/30 02:31:01;;;;;;;9.88;3.60;;;;;;;;;;5057470;28;20117;-66
2022/08/30 02:33:28;;;;;;;5.45;2.90;;;;;;;;;;5074111;28;20085;-66
2022/08/30 02:35:54;;;;;;;6.45;2.70;;;;;;;;;;5091528;28;20035;-66
2022/08/30 02:38:22;;;;;;;6.55;3.28;;;;;;;;;;5073377;28;20488;-66
2022/08/30 02:40:48;;;;;;;6.18;2.72;;;;;;;;;;5074137;28;20105;-66
2022/08/30 02:43:15;;;;;;;5.50;3.33;;;;;;;;;;5091038;28;20040;-66
2022/08/30 02:45:41;;;;;;;5.00;2.67;;;;;;;;;;5091972;28;20058;-66
2022/08/30 02:48:07;;;;;;;7.50;3.20;;;;;;;;;;5072612;28;20484;-66
2022/08/30 02:50:33;;;;;;;5.93;2.90;;;;;;;;;;5074128;28;20084;-66
2022/08/30 02:52:59;;;;;;;5.00;2.60;;;;;;;;;;5093070;28;20077;-66
2022/08/30 02:55:25;;;;;;;6.28;2.63;;;;;;;;;;5076945;28;20457;-66
2022/08/30 02:57:52;;;;;;;5.47;3.20;;;;;;;;;;5096262;28;20040;-66
2022/08/30 03:00:19;;;;;;;5.75;2.65;;;;;;;;;;5060311;28;20040;-66
2022/08/30 03:02:45;;;;;;;5.10;3.00;;;;;;;;;;5095210;28;20059;-66
2022/08/30 03:05:12;;;;;;;7.45;2.65;;;;;;;;;;5077122;28;20101;-66
2022/08/30 03:07:39;;;;;;;4.40;2.42;;;;;;;;;;5095710;28;20101;-66
2022/08/30 03:10:05;;;;;;;4.68;2.70;;;;;;;;;;5076364;28;20044;-66
2022/08/30 03:12:32;;;;;;;4.68;2.40;;;;;;;;;;5095898;28;20098;-66
2022/08/30 03:14:58;;;;;;;5.72;2.95;;;;;;;;;;5077660;28;20065;-66
2022/08/30 03:17:24;;;;;;;6.03;2.58;;;;;;;;;;5094283;28;20057;-66
2022/08/30 03:19:50;;;;;;;5.75;2.92;;;;;;;;;;5077450;28;20044;-66
2022/08/30 03:22:16;;;;;;;5.78;2.50;;;;;;;;;;5094873;28;20048;-66
2022/08/30 03:24:44;;;;;;;5.72;2.95;;;;;;;;;;5076847;28;20127;-66
2022/08/30 03:27:11;;;;;;;4.13;2.30;;;;;;;;;;5076707;28;20488;-66
2022/08/30 03:29:38;;;;;;;7.25;3.03;;;;;;;;;;5095412;28;20044;-66
2022/08/30 03:32:04;;;;;;;5.85;2.65;;;;;;;;;;5076063;28;20127;-66
2022/08/30 03:34:31;;;;;;;6.00;2.72;;;;;;;;;;5095354;28;20040;-66
2022/08/30 03:37:00;;;;;;;4.45;2.47;;;;;;;;;;5076991;28;20500;-66
2022/08/30 03:39:26;;;;;;;5.13;2.75;;;;;;;;;;5075866;28;20050;-66
2022/08/30 03:41:53;;;;;;;5.32;2.75;;;;;;;;;;5095320;28;20044;-66
2022/08/30 03:44:20;;;;;;;4.18;2.25;;;;;;;;;;5076365;28;20050;-66
2022/08/30 03:46:46;;;;;;;5.80;2.38;;;;;;;;;;5094441;28;20419;-66
2022/08/30 03:49:12;;;;;;;6.72;3.03;;;;;;;;;;5076409;28;20396;-66
2022/08/30 03:51:38;;;;;;;6.25;2.90;;;;;;;;;;5075938;28;20044;-66
2022/08/30 03:54:04;;;;;;;6.00;2.65;;;;;;;;;;5076485;28;20396;-66
2022/08/30 03:56:30;;;;;;;9.02;3.42;;;;;;;;;;5076887;28;20044;-66
2022/08/30 03:58:56;;;;;;;5.57;2.50;;;;;;;;;;5076116;28;20487;-66
2022/08/30 04:01:23;;;;;;;5.43;2.70;;;;;;;;;;5059500;28;20058;-66
2022/08/30 04:03:49;;;;;;;4.80;2.50;;;;;;;;;;5076492;28;20098;-66
2022/08/30 04:06:15;;;;;;;7.13;3.28;;;;;;;;;;5092850;28;20044;-66
2022/08/30 04:08:43;;;;;;;9.05;3.10;;;;;;;;;;5094477;28;20127;-66
2022/08/30 04:11:09;;;;;;;5.55;3.05;;;;;;;;;;5075930;28;20040;-66
2022/08/30 04:13:35;;;;;;;6.75;3.17;;;;;;;;;;5075708;28;20055;-66
2022/08/30 04:16:02;;;;;;;12.18;3.35;;;;;;;;;;5094646;28;20043;-66
2022/08/30 04:18:28;;;;;;;5.57;2.88;;;;;;;;;;5076345;28;20093;-66
2022/08/30 04:20:54;;;;;;;5.63;3.03;;;;;;;;;;5075558;28;20059;-66
2022/08/30 04:23:20;;;;;;;7.10;3.63;;;;;;;;;;5075846;28;20040;-66
2022/08/30 04:25:47;;;;;;;6.88;3.05;;;;;;;;;;5094454;28;20044;-66
2022/08/30 04:28:13;;;;;;;6.47;3.03;;;;;;;;;;5057926;28;20040;-66
2022/08/30 04:30:43;;;;;;;8.77;3.85;;;;;;;;;;5094169;28;20561;-66
2022/08/30 04:33:10;;;;;;;7.07;3.83;;;;;;;;;;5075476;28;20488;-66
2022/08/30 04:35:36;;;;;;;6.60;3.95;;;;;;;;;;5075078;28;20048;-66
2022/08/30 04:38:03;;;;;;;6.75;4.03;;;;;;;;;;5093906;28;20042;-66
2022/08/30 04:40:29;;;;;;;7.88;4.20;;;;;;;;;;5059209;28;20039;-66
2022/08/30 04:42:55;;;;;;;7.80;4.18;;;;;;;;;;5075181;28;20062;-66
2022/08/30 04:45:22;;;;;;;8.35;4.18;;;;;;;;;;5075186;28;20632;-66
2022/08/30 04:47:48;;;;;;;10.20;5.18;;;;;;;;;;5074887;28;20538;-66
2022/08/30 04:50:15;;;;;;;7.97;5.10;;;;;;;;;;5075063;28;20089;-66
2022/08/30 04:52:41;;;;;;;8.82;5.50;;;;;;;;;;5059099;28;20036;-66
2022/08/30 04:55:09;;;;;;;8.23;5.53;;;;;;;;;;5074174;28;20480;-66
2022/08/30 04:57:36;;;;;;;10.68;6.05;;;;;;;;;;5075662;28;20047;-66
2022/08/30 05:00:02;;;;;;;8.30;5.55;;;;;;;;;;5075396;28;20040;-66
2022/08/30 05:02:28;;;;;;;9.43;6.10;;;;;;;;;;5092772;28;20400;-66
2022/08/30 05:07:39;;;;;;;8.43;6.00;;;;;;;;;;5075232;28;20050;-66
2022/08/30 05:10:05;;;;;;;11.38;6.70;;;;;;;;;;5092043;28;20451;-66
2022/08/30 05:12:31;;;;;;;12.88;6.22;;;;;;;;;;5075650;28;20040;-66
2022/08/30 05:14:57;;;;;;;9.02;6.32;;;;;;;;;;5075333;28;20101;-66
2022/08/30 05:17:24;;;;;;;10.20;6.93;;;;;;;;;;5073841;28;20515;-66
2022/08/30 05:19:50;;;;;;;9.50;6.35;;;;;;;;;;5058418;28;20610;-66
2022/08/30 05:22:16;;;;;;;11.68;6.97;;;;;;;;;;5092768;28;20047;-66
2022/08/30 05:24:42;;;;;;;8.93;6.63;;;;;;;;;;5074363;28;20507;-66
2022/08/30 05:27:09;;;;;;;13.25;6.30;;;;;;;;;;5074421;28;20046;-66
2022/08/30 05:29:35;;;;;;;10.05;6.88;;;;;;;;;;5074872;28;20040;-66
2022/08/30 05:32:01;;;;;;;10.73;6.60;;;;;;;;;;5074319;28;20035;-66
2022/08/30 05:34:29;;;;;;;9.65;6.22;;;;;;;;;;5074654;28;20050;-66
2022/08/30 05:36:55;;;;;;;9.52;6.85;;;;;;;;;;5074003;28;20480;-66
2022/08/30 05:39:21;;;;;;;8.65;6.05;;;;;;;;;;5074102;28;20039;-66
2022/08/30 05:41:47;;;;;;;9.63;6.18;;;;;;;;;;5058037;28;20051;-66
2022/08/30 05:44:13;;;;;;;11.25;6.57;;;;;;;;;;5073773;28;20047;-66
2022/08/30 05:46:44;;;;;;;11.30;6.05;;;;;;;;;;5092450;28;20055;-66
2022/08/30 05:49:10;;;;;;;9.52;5.63;;;;;;;;;;5074089;28;20044;-66
2022/08/30 05:51:37;;;;;;;10.38;6.13;;;;;;;;;;5073982;28;20044;-66
2022/08/30 05:54:04;;;;;;;10.18;6.35;;;;;;;;;;5074047;28;20046;-66
2022/08/30 05:56:32;;;;;;;10.43;6.28;;;;;;;;;;5074532;28;20040;-66
2022/08/30 05:58:58;;;;;;;10.27;6.57;;;;;;;;;;5073832;28;20047;-69
2022/08/30 06:01:24;;;;;;;8.82;5.47;;;;;;;;;;5074377;28;20548;-69
2022/08/30 06:03:51;;;;;;;9.88;5.10;;;;;;;;;;5074743;28;20147;-69
2022/08/30 06:06:17;;;;;;;9.13;5.28;;;;;;;;;;5091175;28;20058;-69
2022/08/30 06:08:45;;;;;;;8.65;5.10;;;;;;;;;;5057610;28;20074;-68
2022/08/30 06:11:12;;;;;;;7.70;5.05;;;;;;;;;;5074069;28;20384;-69
2022/08/30 06:13:38;;;;;;;7.88;5.10;;;;;;;;;;5073959;28;20076;-69
2022/08/30 06:16:04;;;;;;;8.80;4.45;;;;;;;;;;5091778;28;20503;-69
2022/08/30 06:18:30;;;;;;;8.68;4.32;;;;;;;;;;5092339;28;20040;-69
2022/08/30 06:20:57;;;;;;;7.80;4.88;;;;;;;;;;5091652;28;20044;-68
2022/08/30 06:23:23;;;;;;;7.10;4.80;;;;;;;;;;5073991;28;20060;-69
2022/08/30 06:25:50;;;;;;;8.52;4.78;;;;;;;;;;5092325;28;20040;-69
2022/08/30 06:28:17;;;;;;;7.63;4.32;;;;;;;;;;5092572;28;20047;-69
2022/08/30 06:30:43;;;;;;;7.45;4.30;;;;;;;;;;5096682;28;20040;-69
2022/08/30 06:33:09;;;;;;;8.25;4.38;;;;;;;;;;5077445;28;20036;-66
2022/08/30 06:35:36;;;;;;;5.90;3.63;;;;;;;;;;5078126;28;20131;-66
2022/08/30 06:38:02;;;;;;;7.95;4.03;;;;;;;;;;5077879;28;20039;-66
2022/08/30 06:40:29;;;;;;;8.15;3.90;;;;;;;;;;5077341;28;20048;-66
2022/08/30 06:42:55;;;;;;;6.80;3.65;;;;;;;;;;5078131;28;20054;-67
2022/08/30 06:45:21;;;;;;;5.53;3.13;;;;;;;;;;5077438;28;20101;-67
2022/08/30 06:47:48;;;;;;;6.95;3.10;;;;;;;;;;5076706;28;20044;-67
2022/08/30 06:50:15;;;;;;;6.03;3.00;;;;;;;;;;5081033;28;20043;-66
2022/08/30 06:52:42;;;;;;;4.60;2.30;;;;;;;;;;5077856;28;20050;-66
2022/08/30 06:55:12;;;;;;;7.22;2.70;;;;;;;;;;5065528;28;20051;-67
2022/08/30 06:57:38;;;;;;;4.32;1.92;;;;;;;;;;5062520;28;20036;-67
2022/08/30 07:00:06;;;;;;;5.43;2.38;;;;;;;;;;5060462;28;20040;-67
2022/08/30 07:02:32;;;;;;;5.50;2.33;;;;;;;;;;5062366;28;20052;-67
2022/08/30 07:05:01;;;;;;;4.28;2.08;;;;;;;;;;5062738;28;20066;-66
2022/08/30 07:07:27;;;;;;;4.60;1.77;;;;;;;;;;5043006;28;20048;-66
2022/08/30 07:09:53;;;;;;;5.70;2.63;;;;;;;;;;5056990;28;20461;-66
2022/08/30 07:12:20;;;;;;;7.35;2.33;;;;;;;;;;5056815;28;20546;-66
2022/08/30 07:14:46;;;;;;;4.93;2.15;;;;;;;;;;5075094;28;20382;-67
2022/08/30 07:19:57;;;;;;;4.68;1.90;;;;;;;;;;5053582;28;20106;-66
2022/08/30 07:22:23;;;;;;;4.65;2.03;;;;;;;;;;5072192;28;20053;-66
2022/08/30 07:24:49;;;;;;;4.40;1.98;;;;;;;;;;5037688;28;20051;-66
2022/08/30 07:27:15;;;;;;;6.00;2.17;;;;;;;;;;5037677;28;20048;-66
2022/08/30 07:29:41;;;;;;;4.65;1.67;;;;;;;;;;5053581;28;20094;-65
2022/08/30 07:32:07;;;;;;;4.80;1.50;;;;;;;;;;5071594;28;20047;-65
2022/08/30 07:34:33;;;;;;;4.93;2.33;;;;;;;;;;5054017;28;20048;-64
2022/08/30 07:36:59;;;;;;;5.45;1.85;;;;;;;;;;5052614;28;20488;-64
2022/08/30 07:39:26;;;;;;;5.38;2.03;;;;;;;;;;5044025;28;20048;-64
2022/08/30 07:41:52;;;;;;;4.53;1.50;;;;;;;;;;5054067;28;20048;-64
2022/08/30 07:44:18;;;;;;;3.63;1.38;;;;;;;;;;5052923;28;20055;-61
2022/08/30 07:46:44;;;;;;;5.05;1.55;;;;;;;;;;5071945;28;20151;-61
2022/08/30 07:49:11;;;;;;;3.90;1.77;;;;;;;;;;5069079;28;20140;-61
2022/08/30 07:51:38;;;;;;;4.90;1.65;;;;;;;;;;5053419;28;20040;-61
2022/08/30 07:54:05;;;;;;;4.03;1.90;;;;;;;;;;5053112;28;20052;-64
2022/08/30 07:56:31;;;;;;;3.47;1.50;;;;;;;;;;5074314;28;20044;-65
2022/08/30 07:58:57;;;;;;;4.60;1.70;;;;;;;;;;5035280;28;20044;-64
2022/08/30 08:01:24;;;;;;;4.65;1.60;;;;;;;;;;5053037;28;20524;-62
2022/08/30 08:03:50;;;;;;;5.55;1.77;;;;;;;;;;5053170;28;20083;-64
2022/08/30 08:06:17;;;;;;;3.67;1.33;;;;;;;;;;5070155;28;20123;-63
2022/08/30 08:08:44;;;;;;;4.00;1.40;;;;;;;;;;5037392;28;20052;-63
2022/08/30 08:11:13;;;;;;;4.55;1.60;;;;;;;;;;5053149;28;20477;-67
2022/08/30 08:13:39;;;;;;;6.07;1.73;;;;;;;;;;5071130;28;20080;-63
2022/08/30 08:16:05;;;;;;;6.60;1.60;;;;;;;;;;5035640;28;20571;-64
2022/08/30 08:18:32;;;;;;;4.32;1.30;;;;;;;;;;5050812;28;20064;-67
2022/08/30 08:20:58;;;;;;;5.93;1.52;;;;;;;;;;5052175;28;20040;-64
2022/08/30 08:23:25;;;;;;;4.70;1.58;;;;;;;;;;5050967;28;20564;-67
2022/08/30 08:25:51;;;;;;;5.55;1.67;;;;;;;;;;5053476;28;20056;-68
2022/08/30 08:28:17;;;;;;;6.60;1.90;;;;;;;;;;5052545;28;20051;-65
2022/08/30 08:30:44;;;;;;;4.15;1.42;;;;;;;;;;5053289;28;20044;-65
2022/08/30 08:33:12;;;;;;;4.35;1.48;;;;;;;;;;5035818;28;20036;-61
2022/08/30 08:35:38;;;;;;;3.97;1.55;;;;;;;;;;5053274;28;20110;-64
2022/08/30 08:38:04;;;;;;;4.97;1.50;;;;;;;;;;5052800;28;20044;-63
2022/08/30 08:40:35;;;;;;;4.88;1.48;;;;;;;;;;5052383;28;20040;-64
2022/08/30 08:43:04;;;;;;;3.00;1.27;;;;;;;;;;5071239;28;20052;-69
2022/08/30 08:45:39;;;;;;;4.28;1.35;;;;;;;;;;5053134;28;20064;-70
2022/08/30 08:48:11;;;;;;;4.68;1.48;;;;;;;;;;5035009;28;20504;-68
2022/08/30 08:53:33;;;;;;;4.80;1.67;;;;;;;;;;5050871;28;20056;-69
2022/08/30 08:53:35;;;;;;;5.38;1.85;;;;;;;;;;5029672;28;20444;-69
2022/08/30 08:56:06;;;;;;;3.50;1.23;;;;;;;;;;5032048;28;20045;-68
2022/08/30 08:58:52;;;;;;;3.47;1.50;;;;;;;;;;5047163;28;20047;-65
2022/08/30 09:01:20;;;;;;;3.83;1.35;;;;;;;;;;5056178;28;20083;-64
2022/08/30 09:03:47;;;;;;;3.63;1.27;;;;;;;;;;5054285;28;20524;-68
2022/08/30 09:06:28;;;;;;;3.50;1.30;;;;;;;;;;5051985;28;20047;-67
2022/08/30 09:08:55;;;;;;;2.78;1.27;;;;;;;;;;5051384;28;20044;-62
2022/08/30 09:11:23;;;;;;;5.43;1.95;;;;;;;;;;5072583;28;20070;-62
2022/08/30 09:13:49;;;;;;;4.13;1.40;;;;;;;;;;5071874;28;20072;-62
2022/08/30 09:16:34;;;;;;;3.50;1.40;;;;;;;;;;5056297;28;20037;-61
2022/08/30 09:19:00;;;;;;;3.75;1.30;;;;;;;;;;5055503;28;20396;-62
2022/08/30 09:21:27;;;;;;;3.67;1.10;;;;;;;;;;5072769;28;20047;-62
2022/08/30 09:23:58;;;;;;;3.90;1.30;;;;;;;;;;5072056;28;20427;-67
2022/08/30 09:26:34;;;;;;;3.00;1.10;;;;;;;;;;5072065;28;20044;-68
2022/08/30 09:29:01;;;;;;;2.80;1.30;;;;;;;;;;5067212;28;20058;-64
2022/08/30 09:31:29;;;;;;;6.18;2.03;;;;;;;;;;5072581;28;20041;-68
2022/08/30 09:33:56;;;;;;;3.58;1.20;;;;;;;;;;5054905;28;20050;-66
2022/08/30 09:36:25;;;;;;;3.88;1.50;;;;;;;;;;5070993;28;20041;-63
2022/08/30 09:39:05;;;;;;;4.93;1.40;;;;;;;;;;5055038;28;20489;-65
2022/08/30 09:41:41;;;;;;;4.63;1.63;;;;;;;;;;5090759;28;20500;-66
2022/08/30 09:44:18;;;;;;;3.88;1.27;;;;;;;;;;5056164;28;20397;-66
2022/08/30 09:46:46;;;;;;;3.03;1.38;;;;;;;;;;5072368;28;20560;-67
2022/08/30 09:49:28;;;;;;;3.25;1.08;;;;;;;;;;5073827;28;20041;-68
2022/08/30 09:52:13;;;;;;;6.90;1.92;;;;;;;;;;5071848;28;20086;-67
2022/08/30 09:54:46;;;;;;;2.78;1.40;;;;;;;;;;5055056;28;20549;-67
2022/08/30 09:57:25;;;;;;;3.33;1.27;;;;;;;;;;5066568;28;20047;-67
2022/08/30 10:00:00;;;;;;;4.28;1.30;;;;;;;;;;5072920;28;20058;-65
2022/08/30 10:02:26;;;;;;;3.92;1.30;;;;;;;;;;5072288;28;20090;-65
2022/08/30 10:04:58;;;;;;;3.72;1.42;;;;;;;;;;5055515;28;20052;-64
2022/08/30 10:07:35;;;;;;;4.55;1.63;;;;;;;;;;5071884;28;20044;-68
2022/08/30 10:10:04;;;;;;;3.78;1.20;;;;;;;;;;5053947;28;20040;-67
2022/08/30 10:12:39;;;;;;;6.18;1.63;;;;;;;;;;5052903;28;20373;-64
2022/08/30 10:15:14;;;;;;;2.67;1.08;;;;;;;;;;5079358;28;20085;-69
2022/08/30 10:17:51;;;;;;;2.95;1.10;;;;;;;;;;5073902;28;20050;-68
2022/08/30 10:20:21;;;;;;;7.00;1.70;;;;;;;;;;5072947;28;20051;-67
2022/08/30 10:23:08;;;;;;;4.03;1.00;;;;;;;;;;5074165;28;20048;-66
2022/08/30 10:25:42;;;;;;;4.45;1.30;;;;;;;;;;5051370;28;20048;-66
2022/08/30 10:28:27;;;;;;;3.47;1.00;;;;;;;;;;5041725;28;20094;-66
2022/08/30 10:30:53;;;;;;;;;;;;;;;;;;5047445;28;20053;-67
2022/08/30 10:33:25;;;;;;;3.85;1.20;;;;;;;;;;5051942;28;19917;-67
2022/08/30 10:35:57;;;;;;;3.00;1.13;;;;;;;;;;5054490;28;20048;-66
2022/08/30 10:38:26;;;;;;;2.97;1.35;;;;;;;;;;5071169;28;20063;-63
2022/08/30 10:41:15;;;;;;;3.40;1.13;;;;;;;;;;5071166;28;20392;-64
2022/08/30 10:43:51;;;;;;;3.92;1.17;;;;;;;;;;5053870;28;20534;-65
2022/08/30 10:46:43;;;;;;;4.05;1.20;;;;;;;;;;5036496;28;20064;-63
2022/08/30 10:49:13;;;;;;;4.55;1.02;;;;;;;;;;5061522;28;20488;-68
2022/08/30 10:51:46;;;;;;;2.30;1.00;;;;;;;;;;5059677;28;20047;-65
2022/08/30 10:54:16;;;;;;;2.45;1.00;;;;;;;;;;5054970;28;20028;-65
2022/08/30 10:56:43;;;;;;;3.28;1.13;;;;;;;;;;5077584;28;20090;-66
2022/08/30 10:59:09;;;;;;;3.63;1.20;;;;;;;;;;5071443;28;20048;-64
2022/08/30 11:01:55;;;;;;;2.72;1.10;;;;;;;;;;5047192;28;20131;-64
2022/08/30 11:04:39;;;;;;;4.75;1.20;;;;;;;;;;5072735;28;20044;-65
2022/08/30 11:07:20;;;;;;;3.42;1.15;;;;;;;;;;5073362;28;20044;-64
2022/08/30 11:09:52;;;;;;;2.83;0.98;;;;;;;;;;5054097;28;20044;-65
2022/08/30 11:12:21;;;;;;;3.75;1.20;;;;;;;;;;5053099;28;20047;-65
2022/08/30 11:14:47;;;;;;;4.85;1.30;;;;;;;;;;5067225;28;20048;-64
2022/08/30 11:17:40;;;;;;;3.15;1.10;;;;;;;;;;5063021;28;20127;-63
2022/08/30 11:20:20;;;;;;;4.18;1.45;;;;;;;;;;5071024;28;20095;-66
2022/08/30 11:23:06;;;;;;;4.90;1.33;;;;;;;;;;5074180;28;20051;-66
2022/08/30 11:25:51;;;;;;;3.67;1.10;;;;;;;;;;5089330;28;20047;-66
2022/08/30 11:28:46;;;;;;;2.88;1.02;;;;;;;;;;5043793;28;20054;-65
2022/08/30 11:31:18;;;;;;;4.10;1.30;;;;;;;;;;5047401;28;20052;-66
2022/08/30 11:33:46;;;;;;;3.05;1.10;;;;;;;;;;5056251;28;20037;-67
2022/08/30 11:36:34;;;;;;;3.50;1.10;;;;;;;;;;5055329;28;20036;-67
2022/08/30 11:39:05;;;;;;;3.83;1.33;;;;;;;;;;5074738;28;20033;-67
2022/08/30 11:41:34;;;;;;;2.45;1.00;;;;;;;;;;5040330;28;20051;-64
2022/08/30 11:44:19;;;;;;;4.43;1.15;;;;;;;;;;5056006;28;20123;-64
2022/08/30 11:46:45;;;;;;;;;;;;;;;;;;5067925;28;20113;-65
2022/08/30 11:49:14;;;;;;;3.63;1.02;;;;;;;;;;5069980;28;19928;-67
2022/08/30 11:51:43;;;;;;;4.00;1.20;;;;;;;;;;5045457;28;20048;-67
2022/08/30 11:54:20;;;;;;;3.80;1.00;;;;;;;;;;5052928;28;20036;-69
2022/08/30 11:56:46;;;;;;;2.55;0.88;;;;;;;;;;5055961;28;20411;-71
2022/08/30 11:59:22;;;;;;;3.17;1.02;;;;;;;;;;5065410;28;20489;-69
2022/08/30 12:01:49;;;;;;;4.13;1.42;;;;;;;;;;5071439;28;20404;-67
2022/08/30 12:04:19;;;;;;;5.55;1.48;;;;;;;;;;5052179;28;20590;-65
2022/08/30 12:06:50;;;;;;;2.97;1.30;;;;;;;;;;5048448;28;20136;-66
2022/08/30 12:09:19;;;;;;;3.05;1.30;;;;;;;;;;5051329;28;20048;-65
2022/08/30 12:11:57;;;;;;;4.78;1.10;;;;;;;;;;5073241;28;20401;-65
2022/08/30 12:14:32;;;;;;;2.85;1.08;;;;;;;;;;5051782;28;20048;-68
2022/08/30 12:19:46;;;;;;;3.30;1.13;;;;;;;;;;5070230;28;20131;-67
2022/08/30 12:22:15;;;;;;;5.07;1.38;;;;;;;;;;5035812;28;20044;-67
2022/08/30 12:24:43;;;;;;;3.75;0.98;;;;;;;;;;5071313;28;20093;-65
2022/08/30 12:27:29;;;;;;;2.50;0.98;;;;;;;;;;5050590;28;20055;-65
2022/08/30 12:29:58;;;;;;;5.15;1.60;;;;;;;;;;5050789;28;20059;-68
2022/08/30 12:32:24;;;;;;;4.10;1.38;;;;;;;;;;5069675;28;20094;-72
2022/08/30 12:34:50;;;;;;;2.67;1.10;;;;;;;;;;5053401;28;20371;-69
2022/08/30 12:37:35;;;;;;;4.90;1.30;;;;;;;;;;5035701;28;20044;-67
2022/08/30 12:40:04;;;;;;;5.15;1.42;;;;;;;;;;5070251;28;20064;-66
2022/08/30 12:42:31;;;;;;;3.90;1.02;;;;;;;;;;5053155;28;20124;-68
2022/08/30 12:44:59;;;;;;;2.92;1.15;;;;;;;;;;5052897;28;20048;-69
2022/08/30 12:47:44;;;;;;;3.15;1.20;;;;;;;;;;5069438;28;20123;-68
2022/08/30 12:50:13;;;;;;;3.60;1.10;;;;;;;;;;5035188;28;20911;-66
2022/08/30 12:52:42;;;;;;;2.85;1.40;;;;;;;;;;5073606;28;20044;-66
2022/08/30 12:55:11;;;;;;;3.75;0.90;;;;;;;;;;5068980;28;20036;-66
2022/08/30 12:57:43;;;;;;;3.13;1.35;;;;;;;;;;5052922;28;20056;-65
2022/08/30 13:00:10;;;;;;;3.95;1.27;;;;;;;;;;5051206;28;20575;-66
2022/08/30 13:02:42;;;;;;;4.70;1.33;;;;;;;;;;5035780;28;20127;-69
2022/08/30 13:05:27;;;;;;;3.28;1.42;;;;;;;;;;5051975;28;20040;-68
2022/08/30 13:07:53;;;;;;;;;;;;;;;;;;5051757;28;20040;-65
2022/08/30 13:10:19;;;;;;;2.50;0.98;;;;;;;;;;5051359;28;20297;-65
2022/08/30 13:12:59;;;;;;;2.70;1.08;;;;;;;;;;5070322;28;20045;-66
2022/08/30 13:15:33;;;;;;;4.10;1.33;;;;;;;;;;5063728;28;20040;-72
2022/08/30 13:18:18;;;;;;;4.00;1.20;;;;;;;;;;5067166;28;20052;-66
2022/08/30 13:20:45;;;;;;;;;;;;;;;;;;5068672;28;20053;-67
2022/08/30 13:23:11;;;;;;;4.68;1.17;;;;;;;;;;5049718;28;19920;-68
2022/08/30 13:25:38;;;;;;;3.35;1.10;;;;;;;;;;5060633;28;20490;-66
2022/08/30 13:28:06;;;;;;;4.50;1.65;;;;;;;;;;5054515;28;20122;-66
2022/08/30 13:30:32;;;;;;;5.18;1.20;;;;;;;;;;5057525;28;20459;-66
2022/08/30 13:33:00;;;;;;;3.15;1.15;;;;;;;;;;5069975;28;20911;-68
2022/08/30 13:35:27;;;;;;;3.75;1.35;;;;;;;;;;5068514;28;20044;-68
2022/08/30 13:37:54;;;;;;;3.63;1.30;;;;;;;;;;5038279;28;20067;-66
2022/08/30 13:40:21;;;;;;;10.15;1.55;;;;;;;;;;5069037;28;20051;-66
2022/08/30 13:42:47;;;;;;;4.20;1.60;;;;;;;;;;5034441;28;20048;-68
2022/08/30 13:45:14;;;;;;;4.40;1.58;;;;;;;;;;5068896;28;20060;-65
2022/08/30 13:47:42;;;;;;;2.13;1.00;;;;;;;;;;5051727;28;20132;-70
2022/08/30 13:50:09;;;;;;;3.90;1.10;;;;;;;;;;5068185;28;20056;-70
2022/08/30 13:52:35;;;;;;;3.63;1.40;;;;;;;;;;5069846;28;20036;-68
2022/08/30 13:55:01;;;;;;;3.33;1.30;;;;;;;;;;5069930;28;20041;-69
2022/08/30 13:57:28;;;;;;;2.85;1.10;;;;;;;;;;5051439;28;20520;-68
2022/08/30 13:59:54;;;;;;;2.78;1.17;;;;;;;;;;5051960;28;20473;-66
2022/08/30 14:02:21;;;;;;;3.85;1.35;;;;;;;;;;5034084;28;20040;-68
2022/08/30 14:04:47;;;;;;;3.55;1.20;;;;;;;;;;5033966;28;20052;-68
2022/08/30 14:07:13;;;;;;;3.90;1.20;;;;;;;;;;5050770;28;20052;-69
2022/08/30 14:09:39;;;;;;;4.15;1.77;;;;;;;;;;5051579;28;20051;-69
2022/08/30 14:12:05;;;;;;;2.90;1.20;;;;;;;;;;5068263;28;20055;-68
2022/08/30 14:14:31;;;;;;;4.03;1.40;;;;;;;;;;5050873;28;20032;-67
2022/08/30 14:16:57;;;;;;;4.47;1.55;;;;;;;;;;5051770;28;20101;-65
2022/08/30 14:19:23;;;;;;;4.38;1.20;;;;;;;;;;5035853;28;20059;-68
2022/08/30 14:21:50;;;;;;;6.47;1.70;;;;;;;;;;5078339;28;20062;-69
2022/08/30 14:24:18;;;;;;;4.25;1.90;;;;;;;;;;5068871;28;20051;-69
2022/08/30 14:26:46;;;;;;;6.05;1.92;;;;;;;;;;5068579;28;20044;-69
2022/08/30 14:29:14;;;;;;;5.57;1.33;;;;;;;;;;5048936;28;20178;-67
2022/08/30 14:31:41;;;;;;;3.78;1.38;;;;;;;;;;5080725;28;20040;-66
2022/08/30 14:34:09;;;;;;;3.58;1.20;;;;;;;;;;5063412;28;20089;-66
2022/08/30 14:36:36;;;;;;;4.15;1.48;;;;;;;;;;5061646;28;20605;-66
2022/08/30 14:39:05;;;;;;;5.53;1.73;;;;;;;;;;5062317;28;20037;-68
2022/08/30 14:41:31;;;;;;;3.67;1.10;;;;;;;;;;5084088;28;20493;-69
2022/08/30 14:43:57;;;;;;;5.00;2.28;;;;;;;;;;5065700;28;20048;-67
2022/08/30 14:46:25;;;;;;;4.57;1.45;;;;;;;;;;5049824;28;20117;-68
2022/08/30 14:48:52;;;;;;;5.45;1.63;;;;;;;;;;5051523;28;20053;-66
2022/08/30 14:51:19;;;;;;;2.92;1.23;;;;;;;;;;5072214;28;20040;-66
2022/08/30 14:53:46;;;;;;;3.42;1.20;;;;;;;;;;5072119;28;20041;-68
2022/08/30 14:56:15;;;;;;;4.40;1.33;;;;;;;;;;5054000;28;20036;-68
2022/08/30 14:58:41;;;;;;;4.03;1.27;;;;;;;;;;5072701;28;20522;-67
2022/08/30 15:01:10;;;;;;;4.57;1.30;;;;;;;;;;5052690;28;20033;-67